Time;durP1;ratioP1;P1;durP2;ratioP2;P2;SDS_P1;SDS_P2;PMS_P1;PMS_P2;Temp;Humidity;BMP_temperature;BMP_pressure;BME280_temperature;BME280_humidity;BME280_pressure;Samples;Min_cycle;Max_cycle;Signal;HPM_P1;HPM_P2
2024/02/28 00:00:46;;;;;;;17.67;11.13;;;;;;;;;;5075530;28;20543;-70
2024/02/28 00:03:13;;;;;;;18.87;11.50;;;;;;;;;;5075359;28;20810;-70
2024/02/28 00:05:42;;;;;;;15.77;10.90;;;;;;;;;;5075277;28;20454;-70
2024/02/28 00:08:09;;;;;;;16.47;10.03;;;;;;;;;;5075195;28;20523;-70
2024/02/28 00:10:35;;;;;;;19.30;11.73;;;;;;;;;;5075070;28;20446;-70
2024/02/28 00:13:02;;;;;;;17.08;10.25;;;;;;;;;;5074971;28;20439;-70
2024/02/28 00:15:29;;;;;;;15.90;9.60;;;;;;;;;;5075162;28;20579;-70
2024/02/28 00:17:56;;;;;;;18.37;10.43;;;;;;;;;;5073880;28;20534;-70
2024/02/28 00:20:23;;;;;;;13.80;9.77;;;;;;;;;;5074987;28;20534;-70
2024/02/28 00:22:52;;;;;;;16.63;10.33;;;;;;;;;;5074916;28;20513;-70
2024/02/28 00:25:19;;;;;;;19.27;10.23;;;;;;;;;;5074833;28;20482;-70
2024/02/28 00:27:46;;;;;;;12.40;9.10;;;;;;;;;;5074642;28;20448;-70
2024/02/28 00:30:13;;;;;;;14.93;9.30;;;;;;;;;;5074924;28;20479;-70
2024/02/28 00:32:40;;;;;;;16.63;10.30;;;;;;;;;;5074989;28;20444;-70
2024/02/28 00:35:07;;;;;;;20.03;11.70;;;;;;;;;;5074433;28;20575;-70
2024/02/28 00:37:34;;;;;;;15.97;11.03;;;;;;;;;;5074644;28;20439;-70
2024/02/28 00:40:04;;;;;;;18.63;11.40;;;;;;;;;;5074285;28;20621;-70
2024/02/28 00:42:30;;;;;;;17.03;11.60;;;;;;;;;;5074602;28;20505;-70
2024/02/28 00:44:57;;;;;;;19.43;11.07;;;;;;;;;;5074534;28;20479;-70
2024/02/28 00:47:25;;;;;;;18.57;11.77;;;;;;;;;;5074443;28;20539;-69
2024/02/28 00:49:52;;;;;;;19.20;12.10;;;;;;;;;;5074269;28;20455;-70
2024/02/28 00:52:19;;;;;;;16.47;12.10;;;;;;;;;;5074304;28;20447;-70
2024/02/28 00:54:46;;;;;;;19.40;11.63;;;;;;;;;;5074075;28;20483;-69
2024/02/28 00:57:14;;;;;;;17.83;11.50;;;;;;;;;;5074303;28;20447;-69
2024/02/28 00:59:42;;;;;;;19.13;10.93;;;;;;;;;;5074236;28;20487;-70
2024/02/28 01:02:09;;;;;;;16.03;10.10;;;;;;;;;;5074105;28;20450;-70
2024/02/28 01:04:36;;;;;;;19.00;11.37;;;;;;;;;;5074044;28;20446;-69
2024/02/28 01:07:03;;;;;;;13.50;9.80;;;;;;;;;;5073927;28;20531;-69
2024/02/28 01:09:30;;;;;;;19.83;11.80;;;;;;;;;;5073817;28;20413;-70
2024/02/28 01:11:57;;;;;;;17.60;10.80;;;;;;;;;;5073992;28;20538;-70
2024/02/28 01:14:26;;;;;;;21.17;11.30;;;;;;;;;;5073692;28;20555;-70
2024/02/28 01:16:53;;;;;;;20.30;11.93;;;;;;;;;;5073907;28;20538;-70
2024/02/28 01:19:20;;;;;;;21.70;12.33;;;;;;;;;;5073772;28;20530;-70
2024/02/28 01:21:46;;;;;;;16.70;11.57;;;;;;;;;;5073638;28;20450;-70
2024/02/28 01:24:13;;;;;;;18.10;12.23;;;;;;;;;;5073714;28;20841;-69
2024/02/28 01:26:41;;;;;;;13.00;9.93;;;;;;;;;;5073778;28;20534;-69
2024/02/28 01:29:08;;;;;;;14.90;11.00;;;;;;;;;;5073463;28;20475;-69
2024/02/28 01:31:36;;;;;;;18.40;11.10;;;;;;;;;;5073507;28;20540;-70
2024/02/28 01:34:03;;;;;;;18.90;11.70;;;;;;;;;;5073462;28;20530;-70
2024/02/28 01:36:30;;;;;;;16.50;11.80;;;;;;;;;;5073628;28;20439;-70
2024/02/28 01:38:57;;;;;;;16.70;10.70;;;;;;;;;;5073348;28;20562;-70
2024/02/28 01:41:24;;;;;;;18.43;11.63;;;;;;;;;;5073467;28;20471;-70
2024/02/28 01:43:53;;;;;;;18.53;12.10;;;;;;;;;;5073370;28;20538;-70
2024/02/28 01:46:22;;;;;;;23.37;13.20;;;;;;;;;;5073373;28;20826;-69
2024/02/28 01:48:51;;;;;;;16.80;11.20;;;;;;;;;;5073172;28;20444;-70
2024/02/28 01:51:18;;;;;;;18.80;12.50;;;;;;;;;;5073388;28;20439;-69
2024/02/28 01:53:46;;;;;;;21.57;13.13;;;;;;;;;;5073343;28;20475;-69
2024/02/28 01:56:13;;;;;;;18.70;12.27;;;;;;;;;;5073204;28;20540;-70
2024/02/28 01:58:40;;;;;;;17.80;12.20;;;;;;;;;;5073066;28;20479;-70
2024/02/28 02:01:10;;;;;;;21.13;12.53;;;;;;;;;;5073152;28;20450;-70
2024/02/28 02:03:37;;;;;;;20.67;12.17;;;;;;;;;;5073053;28;20795;-70
2024/02/28 02:06:05;;;;;;;21.90;11.83;;;;;;;;;;5073129;28;20539;-70
2024/02/28 02:08:32;;;;;;;18.57;11.60;;;;;;;;;;5073128;28;20534;-70
2024/02/28 02:11:00;;;;;;;19.67;12.53;;;;;;;;;;5073115;28;20440;-70
2024/02/28 02:13:27;;;;;;;21.00;12.67;;;;;;;;;;5072918;28;20448;-69
2024/02/28 02:15:54;;;;;;;18.03;12.23;;;;;;;;;;5072724;28;21066;-70
2024/02/28 02:18:21;;;;;;;16.50;11.03;;;;;;;;;;5073150;28;20440;-69
2024/02/28 02:20:50;;;;;;;24.27;13.63;;;;;;;;;;5073020;28;20501;-69
2024/02/28 02:23:18;;;;;;;19.83;13.43;;;;;;;;;;5073052;28;20888;-69
2024/02/28 02:25:46;;;;;;;17.97;11.90;;;;;;;;;;5072843;28;20440;-69
2024/02/28 02:28:13;;;;;;;21.70;13.38;;;;;;;;;;5072829;28;20451;-69
2024/02/28 02:30:41;;;;;;;21.63;12.10;;;;;;;;;;5072815;28;20189;-69
2024/02/28 02:33:08;;;;;;;15.17;10.60;;;;;;;;;;5073183;28;20479;-69
2024/02/28 02:35:35;;;;;;;18.30;11.50;;;;;;;;;;5072614;28;20479;-69
2024/02/28 02:38:02;;;;;;;20.83;11.90;;;;;;;;;;5072817;28;20504;-70
2024/02/28 02:40:30;;;;;;;18.27;11.83;;;;;;;;;;5073601;28;20507;-70
2024/02/28 02:42:57;;;;;;;17.57;11.63;;;;;;;;;;5076712;28;20538;-69
2024/02/28 02:45:24;;;;;;;19.40;11.13;;;;;;;;;;5076917;28;20500;-69
2024/02/28 02:47:51;;;;;;;14.90;10.88;;;;;;;;;;5076811;28;20443;-70
2024/02/28 02:50:18;;;;;;;17.87;11.60;;;;;;;;;;5076682;28;20295;-69
2024/02/28 02:52:45;;;;;;;20.47;11.37;;;;;;;;;;5076598;28;20539;-69
2024/02/28 02:55:12;;;;;;;17.70;11.27;;;;;;;;;;5076459;28;20483;-70
2024/02/28 02:57:42;;;;;;;18.47;11.30;;;;;;;;;;5076449;28;20516;-69
2024/02/28 03:00:09;;;;;;;18.37;11.00;;;;;;;;;;5076616;28;20959;-70
2024/02/28 03:02:38;;;;;;;17.23;11.27;;;;;;;;;;5076450;28;20532;-70
2024/02/28 03:05:05;;;;;;;17.70;10.50;;;;;;;;;;5076386;28;20496;-69
2024/02/28 03:07:32;;;;;;;16.83;11.00;;;;;;;;;;5076265;28;20542;-70
2024/02/28 03:09:59;;;;;;;16.50;10.80;;;;;;;;;;5076216;28;20879;-69
2024/02/28 03:12:26;;;;;;;16.00;11.53;;;;;;;;;;5076393;28;20538;-70
2024/02/28 03:14:54;;;;;;;15.67;10.20;;;;;;;;;;5075952;28;20551;-70
2024/02/28 03:17:21;;;;;;;17.17;11.53;;;;;;;;;;5076185;28;20534;-69
2024/02/28 03:19:48;;;;;;;15.70;9.73;;;;;;;;;;5076050;28;20457;-69
2024/02/28 03:22:15;;;;;;;15.77;10.13;;;;;;;;;;5075985;28;20539;-70
2024/02/28 03:24:42;;;;;;;16.70;9.50;;;;;;;;;;5075883;28;20938;-70
2024/02/28 03:27:09;;;;;;;16.70;10.13;;;;;;;;;;5076092;28;20683;-69
2024/02/28 03:29:36;;;;;;;12.60;9.15;;;;;;;;;;5075934;28;20452;-69
2024/02/28 03:32:04;;;;;;;15.23;10.37;;;;;;;;;;5075969;28;20228;-70
2024/02/28 03:34:31;;;;;;;14.53;9.50;;;;;;;;;;5075817;28;20497;-70
2024/02/28 03:36:58;;;;;;;16.50;10.67;;;;;;;;;;5075621;28;20505;-70
2024/02/28 03:39:25;;;;;;;17.40;10.50;;;;;;;;;;5075360;28;20513;-70
2024/02/28 03:41:52;;;;;;;15.43;10.47;;;;;;;;;;5075810;28;20946;-69
2024/02/28 03:44:21;;;;;;;16.63;10.50;;;;;;;;;;5075692;28;20546;-69
2024/02/28 03:46:48;;;;;;;16.13;10.43;;;;;;;;;;5075637;28;20190;-69
2024/02/28 03:49:16;;;;;;;18.57;10.60;;;;;;;;;;5075561;28;20859;-70
2024/02/28 03:51:43;;;;;;;15.40;10.10;;;;;;;;;;5075135;28;20543;-70
2024/02/28 03:54:10;;;;;;;15.03;8.43;;;;;;;;;;5075542;28;20534;-69
2024/02/28 03:56:37;;;;;;;12.57;9.43;;;;;;;;;;5075197;28;21035;-69
2024/02/28 03:59:04;;;;;;;13.45;10.07;;;;;;;;;;5075397;28;20450;-69
2024/02/28 04:01:31;;;;;;;14.37;9.00;;;;;;;;;;5075219;28;20644;-69
2024/02/28 04:03:58;;;;;;;14.40;10.67;;;;;;;;;;5075131;28;20486;-69
2024/02/28 04:06:26;;;;;;;12.50;9.00;;;;;;;;;;5075066;28;20935;-70
2024/02/28 04:08:53;;;;;;;20.40;11.20;;;;;;;;;;5075259;28;20457;-70
2024/02/28 04:11:20;;;;;;;15.57;10.77;;;;;;;;;;5075395;28;20444;-70
2024/02/28 04:13:47;;;;;;;17.27;9.83;;;;;;;;;;5075118;28;20216;-69
2024/02/28 04:16:14;;;;;;;13.67;9.00;;;;;;;;;;5074966;28;20475;-69
2024/02/28 04:18:41;;;;;;;13.30;8.43;;;;;;;;;;5074948;28;20447;-69
2024/02/28 04:21:08;;;;;;;11.67;8.60;;;;;;;;;;5075159;28;20792;-69
2024/02/28 04:23:37;;;;;;;14.95;8.98;;;;;;;;;;5075017;28;20444;-70
2024/02/28 04:26:04;;;;;;;14.05;8.63;;;;;;;;;;5074895;28;20204;-70
2024/02/28 04:28:31;;;;;;;11.50;8.70;;;;;;;;;;5074796;28;20280;-69
2024/02/28 04:30:58;;;;;;;12.48;8.85;;;;;;;;;;5074784;28;20454;-69
2024/02/28 04:33:25;;;;;;;14.70;9.45;;;;;;;;;;5074557;28;20193;-69
2024/02/28 04:35:52;;;;;;;12.02;8.50;;;;;;;;;;5074723;28;20217;-69
2024/02/28 04:38:19;;;;;;;11.37;8.37;;;;;;;;;;5074732;28;20215;-69
2024/02/28 04:40:47;;;;;;;11.07;8.27;;;;;;;;;;5074306;28;20562;-69
2024/02/28 04:43:15;;;;;;;13.90;10.97;;;;;;;;;;5074394;28;20443;-70
2024/02/28 04:45:42;;;;;;;10.37;7.70;;;;;;;;;;5074380;28;20857;-70
2024/02/28 04:48:09;;;;;;;10.90;8.57;;;;;;;;;;5074264;28;20472;-69
2024/02/28 04:50:36;;;;;;;12.03;8.70;;;;;;;;;;5074243;28;20447;-70
2024/02/28 04:53:03;;;;;;;11.00;8.97;;;;;;;;;;5074359;28;20447;-69
2024/02/28 04:55:30;;;;;;;10.70;7.43;;;;;;;;;;5074216;28;20479;-69
2024/02/28 04:57:58;;;;;;;11.90;7.17;;;;;;;;;;5074161;28;20483;-69
2024/02/28 05:00:25;;;;;;;9.50;7.63;;;;;;;;;;5074025;28;20444;-69
2024/02/28 05:02:52;;;;;;;12.30;8.40;;;;;;;;;;5073601;28;20858;-69
2024/02/28 05:05:19;;;;;;;9.27;6.93;;;;;;;;;;5074146;28;20450;-69
2024/02/28 05:07:46;;;;;;;8.57;6.60;;;;;;;;;;5074053;28;20538;-69
2024/02/28 05:10:13;;;;;;;9.27;6.30;;;;;;;;;;5073907;28;20447;-70
2024/02/28 05:12:40;;;;;;;8.10;6.35;;;;;;;;;;5073913;28;20534;-69
2024/02/28 05:15:08;;;;;;;10.77;6.30;;;;;;;;;;5073750;28;20725;-70
2024/02/28 05:17:35;;;;;;;8.40;6.78;;;;;;;;;;5073870;28;20592;-70
2024/02/28 05:20:02;;;;;;;9.27;6.10;;;;;;;;;;5073852;28;20315;-69
2024/02/28 05:22:29;;;;;;;9.20;6.23;;;;;;;;;;5073815;28;20509;-69
2024/02/28 05:24:56;;;;;;;7.03;5.70;;;;;;;;;;5073673;28;20510;-69
2024/02/28 05:27:23;;;;;;;7.47;6.37;;;;;;;;;;5073458;28;20443;-69
2024/02/28 05:29:50;;;;;;;9.30;6.35;;;;;;;;;;5073456;28;20884;-69
2024/02/28 05:32:18;;;;;;;10.33;5.80;;;;;;;;;;5073554;28;20276;-70
2024/02/28 05:34:45;;;;;;;10.43;6.43;;;;;;;;;;5073380;28;20955;-69
2024/02/28 05:37:13;;;;;;;6.10;5.10;;;;;;;;;;5073377;28;20487;-69
2024/02/28 05:39:39;;;;;;;8.17;5.47;;;;;;;;;;5073175;28;20477;-70
2024/02/28 05:42:07;;;;;;;5.23;4.70;;;;;;;;;;5073228;28;20880;-70
2024/02/28 05:44:35;;;;;;;8.13;5.80;;;;;;;;;;5073461;28;20450;-70
2024/02/28 05:47:02;;;;;;;7.33;4.93;;;;;;;;;;5073405;28;20450;-70
2024/02/28 05:49:30;;;;;;;6.07;5.13;;;;;;;;;;5073078;28;20883;-69
2024/02/28 05:51:57;;;;;;;14.67;5.33;;;;;;;;;;5073133;28;20546;-70
2024/02/28 05:54:24;;;;;;;6.88;4.70;;;;;;;;;;5073114;28;20443;-70
2024/02/28 05:56:52;;;;;;;11.40;4.90;;;;;;;;;;5072967;28;20255;-70
2024/02/28 05:59:19;;;;;;;6.00;4.70;;;;;;;;;;5073296;28;20538;-70
2024/02/28 06:01:46;;;;;;;5.17;4.67;;;;;;;;;;5072917;28;21022;-69
2024/02/28 06:04:13;;;;;;;6.00;3.77;;;;;;;;;;5073143;28;20447;-69
2024/02/28 06:06:42;;;;;;;6.03;4.10;;;;;;;;;;5072881;28;20777;-69
2024/02/28 06:09:10;;;;;;;4.17;3.77;;;;;;;;;;5072886;28;20443;-69
2024/02/28 06:11:37;;;;;;;5.67;4.10;;;;;;;;;;5073102;28;20447;-69
2024/02/28 06:14:04;;;;;;;4.77;4.27;;;;;;;;;;5072994;28;20493;-69
2024/02/28 06:16:31;;;;;;;3.73;3.43;;;;;;;;;;5072819;28;20478;-69
2024/02/28 06:18:58;;;;;;;4.30;3.90;;;;;;;;;;5072892;28;20921;-69
2024/02/28 06:21:25;;;;;;;4.90;3.93;;;;;;;;;;5072870;28;20497;-69
2024/02/28 06:23:53;;;;;;;4.40;4.00;;;;;;;;;;5072686;28;20486;-70
2024/02/28 06:26:20;;;;;;;4.17;3.53;;;;;;;;;;5072903;28;20542;-70
2024/02/28 06:28:48;;;;;;;3.97;3.63;;;;;;;;;;5072822;28;20954;-70
2024/02/28 06:31:16;;;;;;;4.27;3.87;;;;;;;;;;5072731;28;20850;-70
2024/02/28 06:33:43;;;;;;;5.00;4.50;;;;;;;;;;5073178;28;20447;-70
2024/02/28 06:36:09;;;;;;;3.80;3.50;;;;;;;;;;5072359;28;20475;-69
2024/02/28 06:38:36;;;;;;;7.00;3.97;;;;;;;;;;5072264;28;20534;-69
2024/02/28 06:41:05;;;;;;;6.67;4.27;;;;;;;;;;5072608;28;20283;-69
2024/02/28 06:43:35;;;;;;;4.77;4.30;;;;;;;;;;5072631;28;20451;-70
2024/02/28 06:46:02;;;;;;;6.70;5.03;;;;;;;;;;5072605;28;20807;-70
2024/02/28 06:48:29;;;;;;;7.27;6.03;;;;;;;;;;5072513;28;20450;-70
2024/02/28 06:50:56;;;;;;;7.60;6.03;;;;;;;;;;5072306;28;20479;-70
2024/02/28 06:53:22;;;;;;;8.50;6.30;;;;;;;;;;5072670;28;20479;-70
2024/02/28 06:55:49;;;;;;;11.07;6.07;;;;;;;;;;5072459;28;20542;-70
2024/02/28 06:58:18;;;;;;;7.57;6.20;;;;;;;;;;5072582;28;20443;-70
2024/02/28 07:00:45;;;;;;;7.30;6.50;;;;;;;;;;5072486;28;20868;-69
2024/02/28 07:03:11;;;;;;;8.10;6.50;;;;;;;;;;5072299;28;20543;-70
2024/02/28 07:05:38;;;;;;;8.53;7.50;;;;;;;;;;5072227;28;20652;-71
2024/02/28 07:08:06;;;;;;;9.40;7.80;;;;;;;;;;5072315;28;20935;-70
2024/02/28 07:10:32;;;;;;;8.70;7.00;;;;;;;;;;5072464;28;20841;-70
2024/02/28 07:12:59;;;;;;;7.97;6.67;;;;;;;;;;5072350;28;20537;-70
2024/02/28 07:15:28;;;;;;;9.73;7.40;;;;;;;;;;5072450;28;20890;-70
2024/02/28 07:17:54;;;;;;;7.63;6.83;;;;;;;;;;5072034;28;20483;-70
2024/02/28 07:20:21;;;;;;;12.43;8.07;;;;;;;;;;5072515;28;20443;-69
2024/02/28 07:22:48;;;;;;;9.43;8.17;;;;;;;;;;5072114;28;20447;-70
2024/02/28 07:25:15;;;;;;;10.27;7.70;;;;;;;;;;5072299;28;20451;-69
2024/02/28 07:27:42;;;;;;;10.20;6.93;;;;;;;;;;5074902;28;20479;-70
2024/02/28 07:30:09;;;;;;;9.17;7.20;;;;;;;;;;5075649;28;20447;-70
2024/02/28 07:32:38;;;;;;;11.23;7.88;;;;;;;;;;5075667;28;20451;-70
2024/02/28 07:35:05;;;;;;;11.37;7.43;;;;;;;;;;5075831;28;20196;-70
2024/02/28 07:37:32;;;;;;;14.40;9.40;;;;;;;;;;5075570;28;20665;-70
2024/02/28 07:39:59;;;;;;;18.20;11.02;;;;;;;;;;5075362;28;20478;-70
2024/02/28 07:42:26;;;;;;;16.30;10.70;;;;;;;;;;5075424;28;20212;-70
2024/02/28 07:44:56;;;;;;;15.33;10.23;;;;;;;;;;5075218;28;20451;-70
2024/02/28 07:47:24;;;;;;;17.50;11.57;;;;;;;;;;5075003;28;20431;-70
2024/02/28 07:49:53;;;;;;;17.20;11.63;;;;;;;;;;5074937;28;20538;-70
2024/02/28 07:52:20;;;;;;;16.67;10.63;;;;;;;;;;5074973;28;20823;-70
2024/02/28 07:54:47;;;;;;;13.50;10.43;;;;;;;;;;5075109;28;20451;-71
2024/02/28 07:57:15;;;;;;;17.00;11.90;;;;;;;;;;5074795;28;20881;-69
2024/02/28 07:59:42;;;;;;;16.50;12.10;;;;;;;;;;5074769;28;20454;-69
2024/02/28 08:02:11;;;;;;;18.30;12.00;;;;;;;;;;5074993;28;20447;-69
2024/02/28 08:04:38;;;;;;;17.57;12.80;;;;;;;;;;5075090;28;20444;-71
2024/02/28 08:07:06;;;;;;;22.10;13.50;;;;;;;;;;5075199;28;20797;-71
2024/02/28 08:09:33;;;;;;;32.93;23.23;;;;;;;;;;5075123;28;20448;-69
2024/02/28 08:12:00;;;;;;;29.50;21.20;;;;;;;;;;5074728;28;20450;-72
2024/02/28 08:14:28;;;;;;;19.90;15.37;;;;;;;;;;5074783;28;20500;-73
2024/02/28 08:16:55;;;;;;;21.83;17.30;;;;;;;;;;5074688;28;20996;-64
2024/02/28 08:19:22;;;;;;;21.50;15.33;;;;;;;;;;5074833;28;20454;-64
2024/02/28 08:21:49;;;;;;;17.13;13.23;;;;;;;;;;5074684;28;20458;-64
2024/02/28 08:24:17;;;;;;;16.77;12.60;;;;;;;;;;5074705;28;20497;-64
2024/02/28 08:26:44;;;;;;;16.90;13.43;;;;;;;;;;5074551;28;20486;-64
2024/02/28 08:29:11;;;;;;;17.57;13.33;;;;;;;;;;5074687;28;20451;-64
2024/02/28 08:31:42;;;;;;;18.33;12.50;;;;;;;;;;5074569;28;20443;-67
2024/02/28 08:34:09;;;;;;;16.00;11.93;;;;;;;;;;5074413;28;20453;-69
2024/02/28 08:36:37;;;;;;;16.23;12.20;;;;;;;;;;5074307;28;20449;-73
2024/02/28 08:39:05;;;;;;;13.20;11.70;;;;;;;;;;5072903;28;20475;-72
2024/02/28 08:41:34;;;;;;;14.40;11.27;;;;;;;;;;5074265;28;20435;-73
2024/02/28 08:44:01;;;;;;;13.63;10.90;;;;;;;;;;5074479;28;20443;-70
2024/02/28 08:46:28;;;;;;;15.50;11.30;;;;;;;;;;5074447;28;20475;-68
2024/02/28 08:48:55;;;;;;;17.83;15.60;;;;;;;;;;5074299;28;20486;-70
2024/02/28 08:51:22;;;;;;;13.60;12.13;;;;;;;;;;5074071;28;20550;-74
2024/02/28 08:53:49;;;;;;;12.67;9.43;;;;;;;;;;5074097;28;20448;-66
2024/02/28 08:56:16;;;;;;;12.77;8.73;;;;;;;;;;5074248;28;20524;-68
2024/02/28 08:58:44;;;;;;;9.67;8.00;;;;;;;;;;5074130;28;20554;-69
2024/02/28 09:01:14;;;;;;;11.60;8.98;;;;;;;;;;5073867;28;20963;-74
2024/02/28 09:03:41;;;;;;;10.17;7.87;;;;;;;;;;5074045;28;20644;-79
2024/02/28 09:06:08;;;;;;;8.90;7.40;;;;;;;;;;5073903;28;20454;-78
2024/02/28 09:08:35;;;;;;;8.40;7.53;;;;;;;;;;5073467;28;20502;-72
2024/02/28 09:11:02;;;;;;;8.43;6.90;;;;;;;;;;5073995;28;20539;-78
2024/02/28 09:13:30;;;;;;;8.73;7.07;;;;;;;;;;5074181;28;20505;-78
2024/02/28 09:15:58;;;;;;;15.37;8.23;;;;;;;;;;5073928;28;20443;-80
2024/02/28 09:18:25;;;;;;;9.40;7.40;;;;;;;;;;5074855;28;20505;-81
2024/02/28 09:20:52;;;;;;;8.90;7.60;;;;;;;;;;5075193;28;20443;-77
2024/02/28 09:23:19;;;;;;;9.00;7.00;;;;;;;;;;5074799;28;20998;-80
2024/02/28 09:25:45;;;;;;;10.23;7.80;;;;;;;;;;5074873;28;20542;-72
2024/02/28 09:28:15;;;;;;;12.43;9.77;;;;;;;;;;5073404;28;20983;-74
2024/02/28 09:30:42;;;;;;;31.00;23.40;;;;;;;;;;5073383;28;20439;-68
2024/02/28 09:33:10;;;;;;;9.83;7.97;;;;;;;;;;5073083;28;21000;-66
2024/02/28 09:35:37;;;;;;;7.97;7.17;;;;;;;;;;5073308;28;20443;-69
2024/02/28 09:38:04;;;;;;;7.87;6.90;;;;;;;;;;5073370;28;20518;-71
2024/02/28 09:40:32;;;;;;;8.77;7.27;;;;;;;;;;5072990;28;20507;-73
2024/02/28 09:43:04;;;;;;;7.37;6.67;;;;;;;;;;5073131;28;20538;-70
2024/02/28 09:45:31;;;;;;;12.33;9.23;;;;;;;;;;5073132;28;20463;-70
2024/02/28 09:47:59;;;;;;;7.83;6.33;;;;;;;;;;5073016;28;20471;-66
2024/02/28 09:50:28;;;;;;;7.90;7.10;;;;;;;;;;5072984;28;20521;-75
2024/02/28 09:52:55;;;;;;;7.20;6.17;;;;;;;;;;5073169;28;20530;-68
2024/02/28 09:55:22;;;;;;;8.87;6.10;;;;;;;;;;5072746;28;21017;-67
2024/02/28 09:57:49;;;;;;;6.00;5.30;;;;;;;;;;5072834;28;20479;-67
2024/02/28 10:00:16;;;;;;;9.57;6.00;;;;;;;;;;5072879;28;20474;-66
2024/02/28 10:02:44;;;;;;;6.63;5.40;;;;;;;;;;5072790;28;20880;-68
2024/02/28 10:05:11;;;;;;;8.23;5.70;;;;;;;;;;5073067;28;20542;-66
2024/02/28 10:07:39;;;;;;;6.47;5.77;;;;;;;;;;5072927;28;20878;-73
2024/02/28 10:10:09;;;;;;;6.20;5.50;;;;;;;;;;5073299;28;20498;-75
2024/02/28 10:12:36;;;;;;;5.53;4.80;;;;;;;;;;5072913;28;20447;-71
2024/02/28 10:15:02;;;;;;;7.23;5.90;;;;;;;;;;5072762;28;20447;-69
2024/02/28 10:17:30;;;;;;;7.17;6.00;;;;;;;;;;5072791;28;20510;-68
2024/02/28 10:19:59;;;;;;;9.87;6.40;;;;;;;;;;5072872;28;20451;-69
2024/02/28 10:22:26;;;;;;;7.20;5.70;;;;;;;;;;5072530;28;20990;-67
2024/02/28 10:24:59;;;;;;;8.10;6.07;;;;;;;;;;5072554;28;20837;-69
2024/02/28 10:27:26;;;;;;;8.83;5.80;;;;;;;;;;5071697;28;20454;-68
2024/02/28 10:29:53;;;;;;;8.00;5.13;;;;;;;;;;5079444;28;20491;-68
2024/02/28 10:32:20;;;;;;;7.23;6.20;;;;;;;;;;5077149;28;20530;-71
2024/02/28 10:34:47;;;;;;;9.70;6.33;;;;;;;;;;5092835;28;20530;-76
2024/02/28 10:37:14;;;;;;;8.17;6.30;;;;;;;;;;5092789;28;20929;-80
2024/02/28 10:39:42;;;;;;;7.70;6.90;;;;;;;;;;5092641;28;20474;-71
2024/02/28 10:42:11;;;;;;;11.00;7.13;;;;;;;;;;5092807;28;20457;-68
2024/02/28 10:44:38;;;;;;;10.27;8.30;;;;;;;;;;5092645;28;21006;-73
2024/02/28 10:47:05;;;;;;;13.37;8.73;;;;;;;;;;5092847;28;20867;-73
2024/02/28 10:49:32;;;;;;;12.37;10.00;;;;;;;;;;5092712;28;20471;-68
2024/02/28 10:52:00;;;;;;;13.90;9.50;;;;;;;;;;5092569;28;20438;-68
2024/02/28 10:54:30;;;;;;;12.30;9.70;;;;;;;;;;5092384;28;20530;-75
2024/02/28 10:56:59;;;;;;;12.77;9.63;;;;;;;;;;5092807;28;20177;-71
2024/02/28 10:59:29;;;;;;;13.55;10.02;;;;;;;;;;5092672;28;20512;-69
2024/02/28 11:01:56;;;;;;;15.10;11.37;;;;;;;;;;5094191;28;20199;-66
2024/02/28 11:04:23;;;;;;;14.10;11.15;;;;;;;;;;5096509;28;20481;-72
2024/02/28 11:06:52;;;;;;;21.02;12.95;;;;;;;;;;5096135;28;20193;-71
2024/02/28 11:09:23;;;;;;;19.73;13.20;;;;;;;;;;5096113;28;20189;-73
2024/02/28 11:11:51;;;;;;;16.33;11.43;;;;;;;;;;5096563;28;20496;-65
2024/02/28 11:14:21;;;;;;;16.10;11.83;;;;;;;;;;5096043;28;20446;-65
2024/02/28 11:16:49;;;;;;;18.40;12.40;;;;;;;;;;5096330;28;20434;-66
2024/02/28 11:19:22;;;;;;;14.63;11.73;;;;;;;;;;5096093;28;20935;-68
2024/02/28 11:21:54;;;;;;;16.50;11.27;;;;;;;;;;5095712;28;20537;-68
2024/02/28 11:24:24;;;;;;;18.70;12.30;;;;;;;;;;5096330;28;20443;-67
2024/02/28 11:26:51;;;;;;;19.10;12.53;;;;;;;;;;5096163;28;20449;-67
2024/02/28 11:29:23;;;;;;;17.33;11.70;;;;;;;;;;5095930;28;20450;-68
2024/02/28 11:31:51;;;;;;;21.10;12.40;;;;;;;;;;5095895;28;20453;-66
2024/02/28 11:34:18;;;;;;;22.57;14.07;;;;;;;;;;5095851;28;20449;-73
2024/02/28 11:36:48;;;;;;;20.93;13.47;;;;;;;;;;5095933;28;20541;-72
2024/02/28 11:39:15;;;;;;;21.80;14.30;;;;;;;;;;5095655;28;20569;-68
2024/02/28 11:41:42;;;;;;;18.50;14.80;;;;;;;;;;5095754;28;20500;-66
2024/02/28 11:44:09;;;;;;;21.00;14.00;;;;;;;;;;5095608;28;20940;-66
2024/02/28 11:46:36;;;;;;;18.57;13.70;;;;;;;;;;5095412;28;20529;-66
2024/02/28 11:49:07;;;;;;;19.40;13.83;;;;;;;;;;5095636;28;20495;-66
2024/02/28 11:51:34;;;;;;;18.57;14.60;;;;;;;;;;5095841;28;20529;-66
2024/02/28 11:54:02;;;;;;;20.43;14.80;;;;;;;;;;5095502;28;20851;-65
2024/02/28 11:56:29;;;;;;;21.87;14.57;;;;;;;;;;5087265;28;20522;-67
2024/02/28 11:58:59;;;;;;;18.47;13.80;;;;;;;;;;5074954;28;20483;-68
2024/02/28 12:01:36;;;;;;;20.90;14.50;;;;;;;;;;5075130;28;20448;-66
2024/02/28 12:04:06;;;;;;;21.17;15.73;;;;;;;;;;5075155;28;20459;-68
2024/02/28 12:06:32;;;;;;;21.40;13.73;;;;;;;;;;5075082;28;20446;-69
2024/02/28 12:08:59;;;;;;;20.80;14.50;;;;;;;;;;5075257;28;20531;-68
2024/02/28 12:11:27;;;;;;;23.07;13.60;;;;;;;;;;5074967;28;20530;-67
2024/02/28 12:13:55;;;;;;;21.67;12.63;;;;;;;;;;5074693;28;20802;-70
2024/02/28 12:16:23;;;;;;;18.40;13.27;;;;;;;;;;5075027;28;20847;-68
2024/02/28 12:18:50;;;;;;;15.30;13.37;;;;;;;;;;5074823;28;20570;-68
2024/02/28 12:21:18;;;;;;;18.10;12.43;;;;;;;;;;5074872;28;20535;-67
2024/02/28 12:23:45;;;;;;;21.23;15.67;;;;;;;;;;5074587;28;20530;-68
2024/02/28 12:26:12;;;;;;;18.00;12.90;;;;;;;;;;5074593;28;20530;-73
2024/02/28 12:28:39;;;;;;;20.40;14.70;;;;;;;;;;5074564;28;20546;-72
2024/02/28 12:31:08;;;;;;;24.40;15.60;;;;;;;;;;5074695;28;20855;-74
2024/02/28 12:33:35;;;;;;;24.93;15.40;;;;;;;;;;5074696;28;20439;-74
2024/02/28 12:36:04;;;;;;;19.37;14.80;;;;;;;;;;5074432;28;20894;-71
2024/02/28 12:38:32;;;;;;;18.70;15.10;;;;;;;;;;5074182;28;20475;-75
2024/02/28 12:40:59;;;;;;;18.67;13.90;;;;;;;;;;5074166;28;20530;-70
2024/02/28 12:43:26;;;;;;;16.30;12.03;;;;;;;;;;5074513;28;20478;-70
2024/02/28 12:45:53;;;;;;;15.53;12.33;;;;;;;;;;5074208;28;20475;-70
2024/02/28 12:48:20;;;;;;;14.87;11.37;;;;;;;;;;5074313;28;20888;-67
2024/02/28 12:50:47;;;;;;;18.83;12.10;;;;;;;;;;5074184;28;20454;-68
2024/02/28 12:53:15;;;;;;;17.07;12.50;;;;;;;;;;5073988;28;20436;-71
2024/02/28 12:55:44;;;;;;;15.33;11.73;;;;;;;;;;5074022;28;20440;-67
2024/02/28 12:58:11;;;;;;;22.37;13.83;;;;;;;;;;5074034;28;20478;-70
2024/02/28 13:00:38;;;;;;;17.90;13.00;;;;;;;;;;5074013;28;21010;-68
2024/02/28 13:03:06;;;;;;;17.10;12.40;;;;;;;;;;5074103;28;20454;-69
2024/02/28 13:11:13;;;;;;;14.83;11.33;;;;;;;;;;5072091;28;20769;-66
2024/02/28 13:13:40;;;;;;;14.50;12.03;;;;;;;;;;5073825;28;20440;-66
2024/02/28 13:16:07;;;;;;;15.67;12.10;;;;;;;;;;5073555;28;20501;-73
2024/02/28 13:18:34;;;;;;;15.13;11.73;;;;;;;;;;5073273;28;20475;-65
2024/02/28 13:21:00;;;;;;;16.73;12.60;;;;;;;;;;5073580;28;20453;-68
2024/02/28 13:23:28;;;;;;;16.10;11.87;;;;;;;;;;5073423;28;20534;-68
2024/02/28 13:25:55;;;;;;;17.10;13.37;;;;;;;;;;5073511;28;20528;-64
2024/02/28 13:28:29;;;;;;;13.93;10.93;;;;;;;;;;5073256;28;20450;-64
2024/02/28 13:30:56;;;;;;;14.30;11.20;;;;;;;;;;5073144;28;20840;-64
2024/02/28 13:33:23;;;;;;;14.43;10.50;;;;;;;;;;5073589;28;20530;-68
2024/02/28 13:35:49;;;;;;;15.27;11.20;;;;;;;;;;5073387;28;20534;-66
2024/02/28 13:38:16;;;;;;;14.23;10.33;;;;;;;;;;5073063;28;20477;-66
2024/02/28 13:40:44;;;;;;;15.57;10.13;;;;;;;;;;5072213;28;20525;-66
2024/02/28 13:43:11;;;;;;;14.47;10.77;;;;;;;;;;5072439;28;20551;-66
2024/02/28 13:45:41;;;;;;;12.87;10.13;;;;;;;;;;5072494;28;20443;-66
2024/02/28 13:48:16;;;;;;;14.13;10.50;;;;;;;;;;5073014;28;20431;-66
2024/02/28 13:50:43;;;;;;;14.30;9.63;;;;;;;;;;5072899;28;20794;-66
2024/02/28 13:53:10;;;;;;;14.07;10.37;;;;;;;;;;5073168;28;20589;-66
2024/02/28 13:55:37;;;;;;;15.17;10.37;;;;;;;;;;5073167;28;20450;-66
2024/02/28 13:58:04;;;;;;;13.43;10.10;;;;;;;;;;5072963;28;20991;-66
2024/02/28 14:00:30;;;;;;;14.23;10.50;;;;;;;;;;5073161;28;20538;-65
2024/02/28 14:03:15;;;;;;;15.37;10.93;;;;;;;;;;5072913;28;20935;-66
2024/02/28 14:05:44;;;;;;;15.90;10.27;;;;;;;;;;5072630;28;20850;-66
2024/02/28 14:08:12;;;;;;;12.83;10.03;;;;;;;;;;5072831;28;20943;-65
2024/02/28 14:10:42;;;;;;;13.80;10.50;;;;;;;;;;5072872;28;20466;-66
2024/02/28 14:13:23;;;;;;;15.40;10.90;;;;;;;;;;5072878;28;20477;-66
2024/02/28 14:15:51;;;;;;;12.00;8.80;;;;;;;;;;5073034;28;20451;-65
2024/02/28 14:18:29;;;;;;;12.90;9.93;;;;;;;;;;5072842;28;20454;-66
2024/02/28 14:20:57;;;;;;;10.80;9.00;;;;;;;;;;5072643;28;20539;-66
2024/02/28 14:23:24;;;;;;;13.80;10.23;;;;;;;;;;5073027;28;20495;-66
2024/02/28 14:25:51;;;;;;;14.07;9.47;;;;;;;;;;5072896;28;20842;-66
2024/02/28 14:28:19;;;;;;;12.07;9.40;;;;;;;;;;5073098;28;20451;-65
2024/02/28 14:30:49;;;;;;;11.80;9.37;;;;;;;;;;5072724;28;20534;-65
2024/02/28 14:33:15;;;;;;;12.80;9.80;;;;;;;;;;5072573;28;20857;-66